Time;durP1;ratioP1;P1;durP2;ratioP2;P2;SDS_P1;SDS_P2;PMS_P1;PMS_P2;Temp;Humidity;BMP_temperature;BMP_pressure;BME280_temperature;BME280_humidity;BME280_pressure;Samples;Min_cycle;Max_cycle;Signal;HPM_P1;HPM_P2
2022/08/28 00:02:21;;;;;;;;;;;;;;;13.58;98.39;102027.78;5030275;28;19977;-76
2022/08/28 00:04:46;;;;;;;;;;;;;;;13.55;98.54;102028.75;5011300;28;19929;-77
2022/08/28 00:07:15;;;;;;;;;;;;;;;13.54;98.14;102031.47;5038957;28;20257;-76
2022/08/28 00:09:41;;;;;;;;;;;;;;;13.54;98.96;102031.47;5042244;28;19931;-76
2022/08/28 00:12:11;;;;;;;;;;;;;;;13.54;98.50;102039.47;5001826;28;20003;-78
2022/08/28 00:14:36;;;;;;;;;;;;;;;13.53;98.48;102035.94;5036110;28;20379;-78
2022/08/28 00:17:02;;;;;;;;;;;;;;;13.54;98.49;102040.34;4995133;28;19928;-78
2022/08/28 00:19:28;;;;;;;;;;;;;;;13.52;98.43;102036.00;5040318;28;19928;-78
2022/08/28 00:21:53;;;;;;;;;;;;;;;13.52;98.05;102036.00;5017429;28;19924;-76
2022/08/28 00:24:19;;;;;;;;;;;;;;;13.50;97.60;102028.06;5011876;28;19929;-78
2022/08/28 00:29:32;;;;;;;;;;;;;;;13.48;97.74;102031.72;5023178;28;20663;-78
2022/08/28 00:31:57;;;;;;;;;;;;;;;13.44;97.63;102034.47;5001165;28;20047;-76
2022/08/28 00:34:27;;;;;;;;;;;;;;;13.42;98.16;102040.78;5029898;28;19979;-77
2022/08/28 00:36:55;;;;;;;;;;;;;;;13.39;97.47;102025.78;5036032;28;19924;-78
2022/08/28 00:39:20;;;;;;;;;;;;;;;13.37;97.90;102030.31;5012866;28;19918;-78
2022/08/28 00:41:46;;;;;;;;;;;;;;;13.36;98.18;102025.94;5028986;28;20108;-78
2022/08/28 00:44:14;;;;;;;;;;;;;;;13.34;97.93;102029.56;5030466;28;19925;-78
2022/08/28 00:46:49;;;;;;;;;;;;;;;13.33;98.41;102026.03;5034776;28;19932;-78
2022/08/28 00:49:15;;;;;;;;;;;;;;;13.34;98.67;102029.56;5029691;28;19925;-77
2022/08/28 00:54:34;;;;;;;;;;;;;;;13.32;98.70;102026.97;5030673;28;20676;-78
2022/08/28 00:57:05;;;;;;;;;;;;;;;13.32;99.25;102013.66;5015028;28;20074;-78
2022/08/28 00:59:33;;;;;;;;;;;;;;;13.31;98.76;102027.88;5033324;28;19917;-76
2022/08/28 01:02:01;;;;;;;;;;;;;;;13.28;98.87;102020.88;5039228;28;19983;-78
2022/08/28 01:04:27;;;;;;;;;;;;;;;13.27;98.75;102026.25;5021469;28;19925;-78
2022/08/28 01:06:54;;;;;;;;;;;;;;;13.25;98.41;102028.97;5012256;28;20041;-77
2022/08/28 01:09:20;;;;;;;;;;;;;;;13.22;98.79;102022.91;5013199;28;20497;-76
2022/08/28 01:11:45;;;;;;;;;;;;;;;13.20;99.95;102020.31;5026986;28;19931;-78
2022/08/28 01:14:12;;;;;;;;;;;;;;;13.22;99.73;102014.91;5033149;28;19924;-77
2022/08/28 01:16:38;;;;;;;;;;;;;;;13.21;99.95;102018.50;5013012;28;20012;-77
2022/08/28 01:19:07;;;;;;;;;;;;;;;13.21;100.00;102013.19;5014919;28;19924;-76
2022/08/28 01:21:38;;;;;;;;;;;;;;;13.20;99.42;102012.34;5018585;28;19976;-77
2022/08/28 01:24:03;;;;;;;;;;;;;;;13.19;99.90;102015.94;5004457;28;20404;-77
2022/08/28 01:26:29;;;;;;;;;;;;;;;13.18;99.62;102017.72;5018078;28;19925;-77
2022/08/28 01:28:58;;;;;;;;;;;;;;;13.16;99.83;102013.38;5013604;28;19936;-77
2022/08/28 01:31:46;;;;;;;;;;;;;;;13.16;100.00;102019.56;5015327;28;20093;-77
2022/08/28 01:34:11;;;;;;;;;;;;;;;13.14;100.00;102020.56;5016650;28;19928;-77
2022/08/28 01:36:47;;;;;;;;;;;;;;;13.11;100.00;102021.53;5033427;28;20004;-77
2022/08/28 01:39:15;;;;;;;;;;;;;;;13.11;100.00;102020.66;5027864;28;20299;-77
2022/08/28 01:41:42;;;;;;;;;;;;;;;13.09;100.00;102019.84;5024854;28;19929;-77
2022/08/28 01:44:08;;;;;;;;;;;;;;;13.08;99.95;102024.28;5006115;28;20003;-78
2022/08/28 01:46:33;;;;;;;;;;;;;;;13.07;100.00;102016.38;4990461;28;20329;-78
2022/08/28 01:49:01;;;;;;;;;;;;;;;13.05;99.96;102019.09;5019276;28;19925;-78
2022/08/28 01:51:27;;;;;;;;;;;;;;;13.04;100.00;102028.00;5007790;28;19928;-78
2022/08/28 01:53:52;;;;;;;;;;;;;;;13.02;99.97;102027.19;5005446;28;19925;-78
2022/08/28 01:56:23;;;;;;;;;;;;;;;12.99;99.99;102017.53;5020899;28;19925;-77
2022/08/28 01:58:48;;;;;;;;;;;;;;;12.98;100.00;102020.25;5021010;28;20601;-76
2022/08/28 02:01:23;;;;;;;;;;;;;;;12.97;100.00;102013.19;5020511;28;20632;-78
2022/08/28 02:03:51;;;;;;;;;;;;;;;12.94;100.00;102010.63;5021875;28;19991;-77
2022/08/28 02:06:17;;;;;;;;;;;;;;;12.93;100.00;102016.88;5021266;28;19960;-77
2022/08/28 02:08:42;;;;;;;;;;;;;;;12.92;100.00;102015.16;5016530;28;20590;-78
2022/08/28 02:11:11;;;;;;;;;;;;;;;12.90;100.00;102015.19;5030029;28;20467;-77
2022/08/28 02:13:42;;;;;;;;;;;;;;;12.89;100.00;102025.00;5008375;28;20402;-77
2022/08/28 02:16:08;;;;;;;;;;;;;;;12.87;100.00;102024.16;5021246;28;19936;-76
2022/08/28 02:18:34;;;;;;;;;;;;;;;12.86;100.00;102022.44;4986554;28;19937;-76
2022/08/28 02:21:03;;;;;;;;;;;;;;;12.85;100.00;102026.00;5002863;28;19925;-76
2022/08/28 02:23:36;;;;;;;;;;;;;;;12.84;100.00;102018.09;5000058;28;19925;-76
2022/08/28 02:26:02;;;;;;;;;;;;;;;12.83;100.00;102019.88;5023465;28;20063;-76
2022/08/28 02:28:29;;;;;;;;;;;;;;;12.83;100.00;102019.88;4995617;28;19921;-75
2022/08/28 02:31:04;;;;;;;;;;;;;;;12.81;100.00;102019.06;5007905;28;20642;-76
2022/08/28 02:33:30;;;;;;;;;;;;;;;12.81;100.00;102019.06;5015212;28;19933;-77
2022/08/28 02:35:56;;;;;;;;;;;;;;;12.79;100.00;102031.53;5018652;28;19986;-75
2022/08/28 02:38:21;;;;;;;;;;;;;;;12.79;100.00;102020.91;4997714;28;19930;-75
2022/08/28 02:40:47;;;;;;;;;;;;;;;12.78;100.00;102016.53;5016408;28;20086;-75
2022/08/28 02:43:12;;;;;;;;;;;;;;;12.75;100.00;102028.13;4996613;28;19928;-76
2022/08/28 02:45:38;;;;;;;;;;;;;;;12.73;100.00;102022.00;5010885;28;19936;-76
2022/08/28 02:48:03;;;;;;;;;;;;;;;12.72;100.00;102030.91;5019073;28;19932;-75
2022/08/28 02:50:31;;;;;;;;;;;;;;;12.70;100.00;102021.25;5018957;28;21451;-77
2022/08/28 02:52:57;;;;;;;;;;;;;;;12.71;100.00;102025.63;5003858;28;19935;-77
2022/08/28 02:55:23;;;;;;;;;;;;;;;12.69;100.00;102023.03;4990839;28;19932;-77
2022/08/28 02:57:49;;;;;;;;;;;;;;;12.68;100.00;102025.75;5020130;28;19925;-77
2022/08/28 03:00:16;;;;;;;;;;;;;;;12.66;100.00;102024.94;4987824;28;19979;-77
2022/08/28 03:02:51;;;;;;;;;;;;;;;12.64;100.00;102017.00;5010482;28;19959;-77
2022/08/28 03:05:26;;;;;;;;;;;;;;;12.61;100.00;102020.66;5014760;28;19932;-77
2022/08/28 03:07:52;;;;;;;;;;;;;;;12.59;100.00;102019.84;5012755;28;19936;-75
2022/08/28 03:10:18;;;;;;;;;;;;;;;12.57;100.00;102024.34;5023752;28;19921;-75
2022/08/28 03:12:47;;;;;;;;;;;;;;;12.56;100.00;102025.25;5023994;28;19925;-75
2022/08/28 03:15:13;;;;;;;;;;;;;;;12.53;100.00;102030.66;5007232;28;19948;-75
2022/08/28 03:17:38;;;;;;;;;;;;;;;12.51;100.00;102024.56;5006728;28;20020;-75
2022/08/28 03:20:04;;;;;;;;;;;;;;;12.48;100.00;102022.00;5023590;28;19936;-75
2022/08/28 03:25:16;;;;;;;;;;;;;;;12.45;100.00;102032.72;5022463;28;19929;-75
2022/08/28 03:27:41;;;;;;;;;;;;;;;12.43;100.00;102034.56;5024518;28;19964;-75
2022/08/28 03:30:07;;;;;;;;;;;;;;;12.42;100.00;102027.53;5019590;28;20015;-76
2022/08/28 03:32:32;;;;;;;;;;;;;;;12.44;100.00;102031.88;5023252;28;19967;-75
2022/08/28 03:34:58;;;;;;;;;;;;;;;12.42;100.00;102028.38;5011190;28;20260;-76
2022/08/28 03:37:24;;;;;;;;;;;;;;;12.41;100.00;102037.28;5002106;28;20419;-75
2022/08/28 03:39:52;;;;;;;;;;;;;;;12.40;100.00;102035.56;5018270;28;19968;-75
2022/08/28 03:42:18;;;;;;;;;;;;;;;12.40;100.00;102040.84;5023888;28;20020;-76
2022/08/28 03:44:47;;;;;;;;;;;;;;;12.39;100.00;102033.81;5023563;28;19976;-75
2022/08/28 03:47:13;;;;;;;;;;;;;;;12.39;100.00;102035.59;5019653;28;20047;-75
2022/08/28 03:49:39;;;;;;;;;;;;;;;12.38;100.00;102036.53;5021880;28;19921;-76
2022/08/28 03:52:04;;;;;;;;;;;;;;;12.37;100.00;102040.97;5016412;28;20501;-75
2022/08/28 03:54:32;;;;;;;;;;;;;;;12.38;100.00;102040.06;5021474;28;19947;-74
2022/08/28 03:56:58;;;;;;;;;;;;;;;12.41;100.00;102041.75;5021468;28;19925;-76
2022/08/28 03:59:23;;;;;;;;;;;;;;;12.43;100.00;102045.19;5005564;28;20395;-76
2022/08/28 04:01:49;;;;;;;;;;;;;;;12.47;100.00;102044.16;5005065;28;20034;-76
2022/08/28 04:04:14;;;;;;;;;;;;;;;12.52;100.00;102044.88;5017124;28;19983;-76
2022/08/28 04:06:43;;;;;;;;;;;;;;;12.54;100.00;102047.50;5022481;28;20460;-76
2022/08/28 04:09:08;;;;;;;;;;;;;;;12.56;100.00;102045.63;4996192;28;20270;-76
2022/08/28 04:11:41;;;;;;;;;;;;;;;12.59;100.00;102050.84;5016792;28;19981;-75
2022/08/28 04:14:07;;;;;;;;;;;;;;;12.59;100.00;102054.38;5005027;28;19932;-76
2022/08/28 04:16:32;;;;;;;;;;;;;;;12.60;100.00;102050.78;4984346;28;19925;-76
2022/08/28 04:19:07;;;;;;;;;;;;;;;12.61;100.00;102054.31;5019647;28;19921;-76
2022/08/28 04:21:32;;;;;;;;;;;;;;;12.60;100.00;102055.25;5019840;28;19932;-75
2022/08/28 04:24:01;;;;;;;;;;;;;;;12.59;100.00;102056.16;5002369;28;19987;-76
2022/08/28 04:26:26;;;;;;;;;;;;;;;12.58;100.00;102052.63;5019754;28;20353;-76
2022/08/28 04:28:53;;;;;;;;;;;;;;;12.59;100.00;102053.50;5015437;28;19929;-76
2022/08/28 04:31:19;;;;;;;;;;;;;;;12.59;100.00;102061.47;5018896;28;19928;-76
2022/08/28 04:33:47;;;;;;;;;;;;;;;12.59;100.00;102062.34;5000414;28;19944;-76
2022/08/28 04:36:17;;;;;;;;;;;;;;;12.57;100.00;102058.88;5020380;28;20624;-76
2022/08/28 04:38:50;;;;;;;;;;;;;;;12.58;100.00;102060.59;4982826;28;20419;-76
2022/08/28 04:41:16;;;;;;;;;;;;;;;12.58;100.00;102065.91;5019211;28;19932;-77
2022/08/28 04:43:42;;;;;;;;;;;;;;;12.60;100.00;102068.53;4999008;28;20637;-76
2022/08/28 04:46:08;;;;;;;;;;;;;;;12.61;100.00;102071.13;4999599;28;19925;-76
2022/08/28 04:48:34;;;;;;;;;;;;;;;12.64;100.00;102086.09;5019081;28;19949;-76
2022/08/28 04:51:00;;;;;;;;;;;;;;;12.66;100.00;102078.94;5020309;28;19922;-77
2022/08/28 04:53:25;;;;;;;;;;;;;;;12.66;100.00;102078.06;5017094;28;19920;-76
2022/08/28 04:55:51;;;;;;;;;;;;;;;12.67;100.00;102082.44;5018490;28;20008;-76
2022/08/28 04:58:17;;;;;;;;;;;;;;;12.68;100.00;102081.56;4967834;28;20038;-76
2022/08/28 05:00:44;;;;;;;;;;;;;;;12.70;100.00;102083.22;4980510;28;20008;-76
2022/08/28 05:03:10;;;;;;;;;;;;;;;12.72;100.00;102088.47;5000247;28;19932;-75
2022/08/28 05:05:43;;;;;;;;;;;;;;;12.75;100.00;102093.72;5022699;28;20016;-75
2022/08/28 05:08:09;;;;;;;;;;;;;;;12.78;100.00;102090.94;5019788;28;20039;-76
2022/08/28 05:10:38;;;;;;;;;;;;;;;12.86;100.00;102102.16;5014780;28;19924;-76
2022/08/28 05:13:03;;;;;;;;;;;;;;;12.93;100.00;102091.31;5031322;28;19956;-75
2022/08/28 05:15:32;;;;;;;;;;;;;;;12.99;100.00;102099.06;5023895;28;19929;-76
2022/08/28 05:17:58;;;;;;;;;;;;;;;13.05;100.00;102096.19;5005548;28;20517;-76
2022/08/28 05:20:23;;;;;;;;;;;;;;;13.15;100.00;102099.38;5034062;28;19920;-76
2022/08/28 05:22:49;;;;;;;;;;;;;;;13.25;100.00;102103.44;5037734;28;19925;-76
2022/08/28 05:25:14;;;;;;;;;;;;;;;13.34;100.00;102096.91;5028247;28;19955;-76
2022/08/28 05:27:58;;;;;;;;;;;;;;;13.46;100.00;102108.06;5021424;28;20455;-75
2022/08/28 05:30:23;;;;;;;;;;;;;;;13.58;100.00;102102.28;5030599;28;19978;-75
2022/08/28 05:32:49;;;;;;;;;;;;;;;13.67;100.00;102104.56;5024781;28;20195;-76
2022/08/28 05:35:17;;;;;;;;;;;;;;;13.80;100.00;102090.78;5026857;28;19925;-76
2022/08/28 05:37:42;;;;;;;;;;;;;;;13.89;100.00;102090.41;5033217;28;19986;-76
2022/08/28 05:40:09;;;;;;;;;;;;;;;13.98;100.00;102098.06;5037204;28;19928;-75
2022/08/28 05:42:34;;;;;;;;;;;;;;;14.06;100.00;102097.72;5025301;28;20019;-75
2022/08/28 05:45:00;;;;;;;;;;;;;;;14.15;100.00;102104.50;5029278;28;19928;-76
2022/08/28 05:47:25;;;;;;;;;;;;;;;14.23;100.00;102107.69;5031293;28;19935;-76
2022/08/28 05:49:51;;;;;;;;;;;;;;;14.32;100.00;102100.28;5038922;28;20457;-76
2022/08/28 05:52:16;;;;;;;;;;;;;;;14.39;100.00;102102.59;5023917;28;21300;-75
2022/08/28 05:54:42;;;;;;;;;;;;;;;14.49;100.00;102097.75;5028968;28;20324;-77
2022/08/28 05:57:07;;;;;;;;;;;;;;;14.58;99.18;102103.63;5022462;28;19936;-75
2022/08/28 05:59:33;;;;;;;;;;;;;;;14.64;99.86;102098.03;5033496;28;19929;-75
2022/08/28 06:01:58;;;;;;;;;;;;;;;14.69;98.38;102101.38;5026879;28;19937;-76
2022/08/28 06:04:25;;;;;;;;;;;;;;;14.77;98.17;102099.28;5035515;28;19979;-76
2022/08/28 06:06:50;;;;;;;;;;;;;;;14.84;97.57;102107.88;5019710;28;19925;-77
2022/08/28 06:09:23;;;;;;;;;;;;;;;14.90;97.55;102104.09;5011158;28;19925;-77
2022/08/28 06:11:49;;;;;;;;;;;;;;;14.99;96.76;102105.47;4982746;28;20368;-76
2022/08/28 06:14:15;;;;;;;;;;;;;;;15.06;96.57;102102.50;5028101;28;20011;-76
2022/08/28 06:16:42;;;;;;;;;;;;;;;15.15;96.01;102106.53;5023641;28;19932;-77
2022/08/28 06:19:08;;;;;;;;;;;;;;;15.23;96.39;102102.63;5009876;28;19921;-77
2022/08/28 06:21:34;;;;;;;;;;;;;;;15.30;95.77;102099.63;5022143;28;19927;-77
2022/08/28 06:23:59;;;;;;;;;;;;;;;15.39;95.34;102105.47;5030250;28;19928;-77
2022/08/28 06:26:28;;;;;;;;;;;;;;;15.48;95.08;102105.06;5016811;28;19990;-76
2022/08/28 06:28:53;;;;;;;;;;;;;;;15.58;95.12;102109.03;5014960;28;19936;-76
2022/08/28 06:31:19;;;;;;;;;;;;;;;15.64;93.87;102112.34;5016544;28;19925;-77
2022/08/28 06:33:53;;;;;;;;;;;;;;;15.65;93.55;102116.75;5027418;28;20368;-78
2022/08/28 06:36:30;;;;;;;;;;;;;;;15.71;94.10;102113.78;4995690;28;19931;-78
2022/08/28 06:38:59;;;;;;;;;;;;;;;15.93;94.01;102121.69;5003296;28;19925;-78
2022/08/28 06:41:28;;;;;;;;;;;;;;;16.16;91.92;102117.03;5014866;28;19984;-77
2022/08/28 06:43:59;;;;;;;;;;;;;;;16.32;92.06;102127.84;5021719;28;19979;-78
2022/08/28 06:46:25;;;;;;;;;;;;;;;16.51;91.14;102124.25;4991072;28;19960;-77
2022/08/28 06:48:53;;;;;;;;;;;;;;;16.64;89.93;102120.00;5012963;28;20070;-77
2022/08/28 06:51:19;;;;;;;;;;;;;;;16.76;89.52;102123.84;5012597;28;19970;-77
2022/08/28 06:53:45;;;;;;;;;;;;;;;16.89;89.26;102116.03;5014705;28;19933;-77
2022/08/28 06:56:19;;;;;;;;;;;;;;;17.07;89.40;102116.94;4999673;28;19929;-77
2022/08/28 06:58:50;;;;;;;;;;;;;;;17.24;88.33;102121.41;5024052;28;19960;-77
2022/08/28 07:01:24;;;;;;;;;;;;;;;17.36;87.63;102124.34;5009148;28;19931;-77
2022/08/28 07:04:21;;;;;;;;;;;;;;;17.40;85.66;102127.72;5012636;28;20284;-78
2022/08/28 07:06:49;;;;;;;;;;;;;;;17.43;85.60;102127.56;5016384;28;20735;-77
2022/08/28 07:09:16;;;;;;;;;;;;;;;17.47;85.06;102123.75;5021061;28;19976;-78
2022/08/28 07:11:43;;;;;;;;;;;;;;;17.50;83.91;102119.09;5022273;28;19932;-77
2022/08/28 07:14:10;;;;;;;;;;;;;;;17.58;84.60;102121.38;5006773;28;20034;-76
2022/08/28 07:16:56;;;;;;;;;;;;;;;17.57;82.46;102125.00;5006100;28;19952;-77
2022/08/28 07:19:24;;;;;;;;;;;;;;;17.50;82.65;102129.81;5019232;28;20530;-77
2022/08/28 07:21:59;;;;;;;;;;;;;;;17.34;83.39;102129.78;5023916;28;19929;-77
2022/08/28 07:24:28;;;;;;;;;;;;;;;17.16;83.29;102131.63;5033436;28;20563;-78
2022/08/28 07:26:59;;;;;;;;;;;;;;;17.04;84.40;102124.25;5035807;28;19921;-77
2022/08/28 07:29:30;;;;;;;;;;;;;;;17.02;83.69;102126.13;5019517;28;20489;-78
2022/08/28 07:31:57;;;;;;;;;;;;;;;17.05;83.21;102134.03;5020808;28;20143;-78
2022/08/28 07:34:28;;;;;;;;;;;;;;;17.16;83.12;102138.81;5036299;28;20086;-77
2022/08/28 07:36:55;;;;;;;;;;;;;;;17.24;83.38;102145.47;5022704;28;19956;-77
2022/08/28 07:39:20;;;;;;;;;;;;;;;17.31;82.43;102137.09;5025326;28;21430;-77
2022/08/28 07:41:51;;;;;;;;;;;;;;;17.37;81.53;102145.69;5031154;28;19927;-78
2022/08/28 07:47:08;;;;;;;;;;;;;;;17.51;79.99;102150.31;5017560;28;19925;-78
2022/08/28 07:49:33;;;;;;;;;;;;;;;17.58;80.65;102153.50;5005973;28;20016;-77
2022/08/28 07:52:01;;;;;;;;;;;;;;;17.73;80.89;102145.56;5017124;28;19928;-77
2022/08/28 07:54:32;;;;;;;;;;;;;;;17.88;79.16;102151.88;5023169;28;19924;-77
2022/08/28 07:56:57;;;;;;;;;;;;;;;17.97;77.71;102147.84;4989528;28;20484;-77
2022/08/28 07:59:23;;;;;;;;;;;;;;;18.02;78.46;102141.25;5008384;28;19929;-76
2022/08/28 08:01:52;;;;;;;;;;;;;;;18.03;79.02;102156.38;5019847;28;19972;-76
2022/08/28 08:04:21;;;;;;;;;;;;;;;17.94;77.06;102159.59;5025197;28;19925;-77
2022/08/28 08:06:52;;;;;;;;;;;;;;;17.90;77.02;102166.06;5008812;28;19925;-77
2022/08/28 08:09:21;;;;;;;;;;;;;;;17.83;77.34;102167.34;5019480;28;20265;-77
2022/08/28 08:11:49;;;;;;;;;;;;;;;17.72;78.20;102171.50;5021223;28;19925;-76
2022/08/28 08:14:17;;;;;;;;;;;;;;;17.60;78.25;102173.00;5004807;28;19929;-77
2022/08/28 08:16:43;;;;;;;;;;;;;;;17.66;78.97;102174.50;5005251;28;20008;-77
2022/08/28 08:19:14;;;;;;;;;;;;;;;17.80;78.21;102164.84;5016431;28;19925;-77
2022/08/28 08:21:47;;;;;;;;;;;;;;;17.81;77.17;102179.97;5009121;28;19932;-77
2022/08/28 08:24:24;;;;;;;;;;;;;;;17.87;77.04;102169.75;5003722;28;20256;-77
2022/08/28 08:27:01;;;;;;;;;;;;;;;17.88;76.78;102179.53;4992624;28;19928;-76
2022/08/28 08:29:28;;;;;;;;;;;;;;;17.93;77.99;102181.97;5010781;28;20284;-77
2022/08/28 08:31:54;;;;;;;;;;;;;;;18.08;77.01;102180.25;5000833;28;19921;-77
2022/08/28 08:34:19;;;;;;;;;;;;;;;18.21;76.35;102187.59;5020142;28;20435;-77
2022/08/28 08:36:45;;;;;;;;;;;;;;;18.30;76.23;102182.59;5010333;28;19929;-75
2022/08/28 08:39:13;;;;;;;;;;;;;;;18.22;75.14;102190.22;5016226;28;20008;-77
2022/08/28 08:41:52;;;;;;;;;;;;;;;18.20;76.89;102184.09;4994204;28;19960;-76
2022/08/28 08:44:25;;;;;;;;;;;;;;;18.36;76.33;102186.72;5010197;28;20319;-77
2022/08/28 08:47:12;;;;;;;;;;;;;;;18.56;76.64;102182.91;5002649;28;19928;-77
2022/08/28 08:49:47;;;;;;;;;;;;;;;18.80;75.60;102182.41;5008221;28;20304;-77
2022/08/28 08:52:13;;;;;;;;;;;;;;;18.91;73.42;102175.53;5002771;28;19931;-77
2022/08/28 08:54:39;;;;;;;;;;;;;;;19.04;72.90;102181.06;5006393;28;19920;-77
2022/08/28 08:57:05;;;;;;;;;;;;;;;19.13;71.32;102181.34;4996259;28;20471;-77
2022/08/28 08:59:37;;;;;;;;;;;;;;;19.25;71.85;102174.41;5018073;28;19943;-77
2022/08/28 09:02:12;;;;;;;;;;;;;;;19.31;70.34;102175.84;4991061;28;19925;-77
2022/08/28 09:04:38;;;;;;;;;;;;;;;19.40;70.44;102185.16;5015257;28;21385;-78
2022/08/28 09:07:23;;;;;;;;;;;;;;;19.59;70.38;102183.97;4996449;28;19968;-77
2022/08/28 09:09:51;;;;;;;;;;;;;;;19.76;67.55;102188.28;5015030;28;19920;-77
2022/08/28 09:12:19;;;;;;;;;;;;;;;19.80;68.22;102185.31;5041245;28;19925;-76
2022/08/28 09:15:03;;;;;;;;;;;;;;;19.69;66.10;102187.81;5021838;28;19931;-77
2022/08/28 09:17:36;;;;;;;;;;;;;;;19.71;67.84;102185.03;5037332;28;20282;-78
2022/08/28 09:20:02;;;;;;;;;;;;;;;19.75;68.74;102182.06;5036868;28;20398;-77
2022/08/28 09:22:36;;;;;;;;;;;;;;;19.95;68.90;102183.50;5037288;28;19927;-78
2022/08/28 09:25:06;;;;;;;;;;;;;;;20.12;68.20;102178.88;5042709;28;19921;-77
2022/08/28 09:27:37;;;;;;;;;;;;;;;20.11;67.03;102181.66;5040651;28;19959;-78
2022/08/28 09:30:15;;;;;;;;;;;;;;;19.76;66.15;102182.91;5000366;28;19924;-77
2022/08/28 09:32:43;;;;;;;;;;;;;;;19.42;66.56;102185.91;5037619;28;19932;-77
2022/08/28 09:35:24;;;;;;;;;;;;;;;19.49;66.75;102183.69;5035689;28;20274;-77
2022/08/28 09:37:49;;;;;;;;;;;;;;;19.74;67.08;102179.47;5036365;28;19967;-77
2022/08/28 09:40:23;;;;;;;;;;;;;;;19.77;65.61;102188.19;5040713;28;20034;-77
2022/08/28 09:43:25;;;;;;;;;;;;;;;19.59;67.30;102187.53;5038179;28;19921;-77
2022/08/28 09:46:10;;;;;;;;;;;;;;;19.27;67.71;102195.75;5024092;28;19931;-77
2022/08/28 09:48:39;;;;;;;;;;;;;;;19.15;68.99;102194.69;5039666;28;19936;-78
2022/08/28 09:51:16;;;;;;;;;;;;;;;19.38;69.21;102189.72;5034274;28;19924;-78
2022/08/28 09:54:01;;;;;;;;;;;;;;;19.50;68.40;102199.72;5020836;28;20482;-77
2022/08/28 09:59:27;;;;;;;;;;;;;;;19.41;67.07;102195.78;5029822;28;19931;-77
2022/08/28 10:02:19;;;;;;;;;;;;;;;19.33;67.09;102192.69;5040433;28;19932;-77
2022/08/28 10:04:54;;;;;;;;;;;;;;;19.19;68.55;102193.56;5019310;28;20015;-77
2022/08/28 10:07:31;;;;;;;;;;;;;;;19.14;68.82;102193.81;5040517;28;19925;-78
2022/08/28 10:10:09;;;;;;;;;;;;;;;19.18;69.24;102205.22;5033190;28;19932;-78
2022/08/28 10:12:48;;;;;;;;;;;;;;;19.05;69.28;102199.75;5021890;28;19928;-77
2022/08/28 10:15:16;;;;;;;;;;;;;;;18.85;68.13;102199.09;5002536;28;19920;-76
2022/08/28 10:18:04;;;;;;;;;;;;;;;18.73;68.78;102197.13;5003817;28;20289;-79
2022/08/28 10:21:00;;;;;;;;;;;;;;;18.67;68.71;102198.38;5019092;28;20434;-77
2022/08/28 10:23:31;;;;;;;;;;;;;;;18.66;68.56;102193.97;5020253;28;19925;-78
2022/08/28 10:26:02;;;;;;;;;;;;;;;18.66;68.24;102195.75;5006852;28;19931;-78
2022/08/28 10:28:47;;;;;;;;;;;;;;;18.72;68.71;102198.97;5005039;28;19924;-78
2022/08/28 10:31:18;;;;;;;;;;;;;;;18.78;67.93;102191.53;5021219;28;19925;-76
2022/08/28 10:34:16;;;;;;;;;;;;;;;;;;;;;
2022/08/28 10:36:41;;;;;;;;;;;;;;;18.76;69.16;102194.28;5019422;28;19917;-78
2022/08/28 10:39:13;;;;;;;;;;;;;;;18.93;67.79;102200.44;5022529;28;19931;-78
2022/08/28 10:41:43;;;;;;;;;;;;;;;18.99;64.97;102202.78;5022796;28;20439;-77
2022/08/28 10:44:19;;;;;;;;;;;;;;;18.98;64.06;102198.38;5019356;28;19931;-78
2022/08/28 10:46:45;;;;;;;;;;;;;;;18.99;66.03;102210.81;5020581;28;19927;-77
2022/08/28 10:49:14;;;;;;;;;;;;;;;18.96;65.94;102211.03;5022219;28;20292;-77
2022/08/28 10:51:43;;;;;;;;;;;;;;;18.85;65.99;102214.34;4982254;28;19932;-78
2022/08/28 10:54:33;;;;;;;;;;;;;;;18.71;66.16;102202.59;5018157;28;19927;-78
2022/08/28 10:57:01;;;;;;;;;;;;;;;18.59;66.29;102198.81;5026068;28;19925;-77
2022/08/28 10:59:30;;;;;;;;;;;;;;;18.59;63.30;102197.94;5022535;28;19927;-79
2022/08/28 11:01:59;;;;;;;;;;;;;;;18.64;62.46;102206.59;5021164;28;19952;-78
2022/08/28 11:04:24;;;;;;;;;;;;;;;18.69;63.20;102198.28;5020604;28;20626;-77
2022/08/28 11:06:51;;;;;;;;;;;;;;;18.75;63.48;102187.19;5021088;28;20386;-78
2022/08/28 11:09:37;;;;;;;;;;;;;;;18.85;61.60;102187.50;5005690;28;20401;-77
2022/08/28 11:12:05;;;;;;;;;;;;;;;18.93;63.84;102193.28;5000946;28;19921;-77
2022/08/28 11:14:33;;;;;;;;;;;;;;;18.98;64.11;102187.63;5006157;28;19921;-77
2022/08/28 11:17:29;;;;;;;;;;;;;;;19.05;63.80;102190.81;5006556;28;20007;-76
2022/08/28 11:20:14;;;;;;;;;;;;;;;19.12;61.78;102197.56;5003692;28;20414;-76
2022/08/28 11:23:03;;;;;;;;;;;;;;;19.15;62.64;102194.69;5017218;28;19925;-76
2022/08/28 11:25:28;;;;;;;;;;;;;;;19.18;60.07;102196.34;5023948;28;19950;-78
2022/08/28 11:28:13;;;;;;;;;;;;;;;19.17;61.34;102199.97;5011638;28;20010;-78
2022/08/28 11:30:39;;;;;;;;;;;;;;;19.23;61.58;102207.66;5013592;28;20383;-77
2022/08/28 11:33:25;;;;;;;;;;;;;;;19.21;60.95;102205.06;5004774;28;19925;-77
2022/08/28 11:35:56;;;;;;;;;;;;;;;19.14;60.56;102204.56;5000473;28;20632;-77
2022/08/28 11:38:40;;;;;;;;;;;;;;;19.18;61.17;102204.38;5010212;28;19924;-77
2022/08/28 11:41:21;;;;;;;;;;;;;;;19.21;60.92;102209.56;5015371;28;19935;-77
2022/08/28 11:43:48;;;;;;;;;;;;;;;19.31;60.31;102205.38;4989058;28;19928;-77
2022/08/28 11:46:43;;;;;;;;;;;;;;;19.32;59.24;102217.81;4997674;28;19930;-77
2022/08/28 11:49:27;;;;;;;;;;;;;;;19.25;60.23;102217.34;4982379;28;20435;-78
2022/08/28 11:52:00;;;;;;;;;;;;;;;19.24;60.76;102212.91;5024595;28;19928;-76
2022/08/28 11:54:44;;;;;;;;;;;;;;;19.18;60.65;102207.06;5009220;28;19924;-78
2022/08/28 11:57:14;;;;;;;;;;;;;;;19.25;62.54;102205.75;5022353;28;19925;-77
2022/08/28 11:59:39;;;;;;;;;;;;;;;19.35;61.42;102204.19;4990363;28;19921;-77
2022/08/28 12:02:24;;;;;;;;;;;;;;;19.37;59.84;102218.41;5022064;28;20594;-77
2022/08/28 12:04:49;;;;;;;;;;;;;;;19.29;60.07;102212.66;5022100;28;19952;-78
2022/08/28 12:07:16;;;;;;;;;;;;;;;19.26;60.95;102216.38;5005158;28;20024;-77
2022/08/28 12:09:43;;;;;;;;;;;;;;;19.24;61.00;102204.84;5023157;28;19931;-77
2022/08/28 12:12:17;;;;;;;;;;;;;;;19.27;61.27;102207.38;4999487;28;19928;-77
2022/08/28 12:14:43;;;;;;;;;;;;;;;19.35;61.71;102206.03;5019809;28;19958;-77
2022/08/28 12:17:20;;;;;;;;;;;;;;;19.32;61.70;102209.78;5021449;28;20700;-77
2022/08/28 12:19:47;;;;;;;;;;;;;;;19.19;61.69;102209.66;5018874;28;20031;-77
2022/08/28 12:22:21;;;;;;;;;;;;;;;19.13;61.46;102210.88;4977367;28;19925;-78
2022/08/28 12:25:03;;;;;;;;;;;;;;;19.20;62.07;102207.84;4998568;28;20480;-77
2022/08/28 12:27:30;;;;;;;;;;;;;;;19.35;61.63;102203.34;5013093;28;20697;-76
2022/08/28 12:29:57;;;;;;;;;;;;;;;19.39;61.07;102208.44;5001864;28;20096;-78
2022/08/28 12:32:23;;;;;;;;;;;;;;;19.38;61.90;102203.16;4997763;28;19921;-78
2022/08/28 12:34:58;;;;;;;;;;;;;;;19.35;62.79;102217.63;5015149;28;19921;-77
2022/08/28 12:37:29;;;;;;;;;;;;;;;19.34;63.35;102204.31;5020259;28;20368;-77
2022/08/28 12:39:55;;;;;;;;;;;;;;;19.28;63.54;102200.16;4997710;28;19921;-77
2022/08/28 12:42:22;;;;;;;;;;;;;;;19.14;64.08;102204.56;5018283;28;21741;-77
2022/08/28 12:44:51;;;;;;;;;;;;;;;19.13;64.88;102202.84;5020741;28;19921;-77
2022/08/28 12:47:19;;;;;;;;;;;;;;;19.23;65.07;102207.66;5000169;28;19989;-77
2022/08/28 12:49:44;;;;;;;;;;;;;;;19.39;65.00;102200.38;4980512;28;20534;-77
2022/08/28 12:52:14;;;;;;;;;;;;;;;19.52;63.72;102205.00;5021275;28;19929;-77
2022/08/28 12:54:40;;;;;;;;;;;;;;;19.51;64.44;102214.00;5016879;28;19936;-78
2022/08/28 12:57:07;;;;;;;;;;;;;;;19.41;64.61;102211.88;5020431;28;19992;-77
2022/08/28 12:59:40;;;;;;;;;;;;;;;19.36;65.42;102219.38;5001412;28;20333;-77
2022/08/28 13:02:07;;;;;;;;;;;;;;;19.30;66.75;102219.75;5005132;28;21582;-77
2022/08/28 13:04:32;;;;;;;;;;;;;;;19.30;66.43;102216.19;5000815;28;19979;-78